createdAt,value
2023-01-19T00:02:13.611Z,64.00
2023-01-19T00:04:45.363Z,63.82
2023-01-19T00:07:17.281Z,64.58
2023-01-19T00:09:48.938Z,64.13
2023-01-19T00:12:23.824Z,64.88
2023-01-19T00:14:55.514Z,64.72
2023-01-19T00:17:27.197Z,64.49
2023-01-19T00:19:58.939Z,64.90
2023-01-19T00:22:30.722Z,65.04
2023-01-19T00:25:04.284Z,64.57
2023-01-19T00:27:35.944Z,65.09
2023-01-19T00:30:10.338Z,64.23
2023-01-19T00:32:42.223Z,64.69
2023-01-19T00:35:14.016Z,65.11
2023-01-19T00:37:46.153Z,65.03
2023-01-19T00:40:18.260Z,64.79
2023-01-19T00:42:49.953Z,65.29
2023-01-19T00:45:24.075Z,65.10
2023-01-19T00:47:57.290Z,65.12
2023-01-19T00:50:32.791Z,65.31
2023-01-19T00:53:04.500Z,65.12
2023-01-19T00:55:36.191Z,65.60
2023-01-19T00:58:07.892Z,65.09
2023-01-19T01:00:39.980Z,65.25
2023-01-19T01:03:11.746Z,65.48
2023-01-19T01:05:46.418Z,65.04
2023-01-19T01:08:18.063Z,65.37
2023-01-19T01:10:50.978Z,64.96
2023-01-19T01:13:26.184Z,65.40
2023-01-19T01:15:59.130Z,64.58
2023-01-19T01:18:33.939Z,64.73
2023-01-19T01:21:06.810Z,64.86
2023-01-19T01:23:39.169Z,64.82
2023-01-19T01:26:10.807Z,65.38
2023-01-19T01:28:42.513Z,65.17
2023-01-19T01:31:14.410Z,65.37
2023-01-19T01:33:46.116Z,65.08
2023-01-19T01:36:20.930Z,65.19
2023-01-19T01:38:52.445Z,64.86
2023-01-19T01:41:25.452Z,64.78
2023-01-19T01:43:58.890Z,64.70
2023-01-19T01:46:31.993Z,64.55
2023-01-19T01:49:13.342Z,63.80
2023-01-19T01:51:52.798Z,63.64
2023-01-19T01:54:32.472Z,63.58
2023-01-19T01:57:12.397Z,63.92
2023-01-19T01:59:49.658Z,63.54
2023-01-19T02:02:45.951Z,63.24
2023-01-19T02:05:17.487Z,62.68
2023-01-19T02:08:31.372Z,63.42
2023-01-19T02:11:22.471Z,63.40
2023-01-19T02:13:54.306Z,63.34
2023-01-19T02:16:26.359Z,63.24
2023-01-19T02:18:58.211Z,63.82
2023-01-19T02:21:39.083Z,63.43
2023-01-19T02:24:11.029Z,64.01
2023-01-19T02:26:46.010Z,64.26
2023-01-19T02:29:26.028Z,64.64
2023-01-19T02:31:59.826Z,64.93
2023-01-19T02:34:32.429Z,65.63
2023-01-19T02:37:10.055Z,65.61
2023-01-19T02:39:47.240Z,65.78
2023-01-19T02:42:25.426Z,66.03
2023-01-19T02:44:57.979Z,66.63
2023-01-19T02:47:38.762Z,66.61
2023-01-19T02:50:42.030Z,66.87
2023-01-19T02:53:45.757Z,67.22
2023-01-19T02:56:46.020Z,67.27
2023-01-19T02:59:37.216Z,67.51
2023-01-19T03:02:17.622Z,67.29
2023-01-19T03:05:21.858Z,67.94
2023-01-19T03:08:10.218Z,67.77
2023-01-19T03:10:53.546Z,67.65
2023-01-19T03:13:53.297Z,67.41
2023-01-19T03:16:40.958Z,67.25
2023-01-19T03:19:27.582Z,67.93
2023-01-19T03:22:03.731Z,67.93
2023-01-19T03:24:40.196Z,67.85
2023-01-19T03:27:23.191Z,67.99
2023-01-19T03:30:07.958Z,67.36
2023-01-19T03:32:48.500Z,67.67
2023-01-19T03:35:24.470Z,68.16
2023-01-19T03:38:03.849Z,68.16
2023-01-19T03:40:36.683Z,68.10
2023-01-19T03:43:09.686Z,68.53
2023-01-19T03:45:42.952Z,68.27
2023-01-19T03:48:17.294Z,68.50
2023-01-19T03:50:49.239Z,68.48
2023-01-19T03:53:22.781Z,68.17
2023-01-19T03:55:55.115Z,68.21
2023-01-19T03:58:26.888Z,68.50
2023-01-19T04:01:01.876Z,68.29
2023-01-19T04:03:33.630Z,68.30
2023-01-19T04:06:05.672Z,68.63
2023-01-19T04:08:37.351Z,68.19
2023-01-19T04:11:09.762Z,68.41
2023-01-19T04:13:41.489Z,68.41
2023-01-19T04:16:13.319Z,68.29
2023-01-19T04:18:45.052Z,67.81
2023-01-19T04:21:16.967Z,67.87
2023-01-19T04:23:49.971Z,67.50
2023-01-19T04:26:21.962Z,67.23
2023-01-19T04:28:56.127Z,66.90
2023-01-19T04:31:28.060Z,66.67
2023-01-19T04:33:59.811Z,66.65
2023-01-19T04:36:31.515Z,67.02
2023-01-19T04:39:03.255Z,65.96
2023-01-19T04:41:36.083Z,65.75
2023-01-19T04:44:07.840Z,65.50
2023-01-19T04:46:40.806Z,65.58
2023-01-19T04:49:12.555Z,65.45
2023-01-19T04:51:44.540Z,65.54
2023-01-19T04:54:16.214Z,65.78
2023-01-19T04:56:48.067Z,65.06
2023-01-19T04:59:20.478Z,65.09
2023-01-19T05:01:52.217Z,65.25
2023-01-19T05:04:25.658Z,65.13
2023-01-19T05:06:58.307Z,65.09
2023-01-19T05:09:29.944Z,65.33
2023-01-19T05:12:01.612Z,65.22
2023-01-19T05:14:33.386Z,65.33
2023-01-19T05:17:05.265Z,64.96
2023-01-19T05:19:36.932Z,65.30
2023-01-19T05:22:08.759Z,64.96
2023-01-19T05:24:40.530Z,64.98
2023-01-19T05:27:12.592Z,65.05
2023-01-19T05:29:44.274Z,64.87
2023-01-19T05:32:15.979Z,64.82
2023-01-19T05:34:47.615Z,64.97
2023-01-19T05:37:19.603Z,65.09
2023-01-19T05:39:51.436Z,65.21
2023-01-19T05:42:23.181Z,65.16
2023-01-19T05:44:54.809Z,65.06
2023-01-19T05:47:26.563Z,64.91
2023-01-19T05:49:58.451Z,65.12
2023-01-19T05:52:30.192Z,65.14
2023-01-19T05:55:01.883Z,64.75
2023-01-19T05:57:33.566Z,64.98
2023-01-19T06:00:05.841Z,64.87
2023-01-19T06:02:40.853Z,64.93
2023-01-19T06:05:12.638Z,64.89
2023-01-19T06:07:44.407Z,64.70
2023-01-19T06:10:16.626Z,64.48
2023-01-19T06:12:49.027Z,64.84
2023-01-19T06:15:20.843Z,64.88
2023-01-19T06:17:55.145Z,64.79
2023-01-19T06:20:26.820Z,64.81
2023-01-19T06:22:59.064Z,65.06
2023-01-19T06:25:30.937Z,65.09
2023-01-19T06:28:05.413Z,64.84
2023-01-19T06:30:37.193Z,64.76
2023-01-19T06:33:09.166Z,64.80
2023-01-19T06:35:43.702Z,64.76
2023-01-19T06:38:18.163Z,64.68
2023-01-19T06:41:02.730Z,64.58
2023-01-19T06:43:34.522Z,64.63
2023-01-19T06:46:06.263Z,64.69
2023-01-19T06:48:37.968Z,64.84
2023-01-19T06:51:10.186Z,64.72
2023-01-19T06:53:41.866Z,64.67
2023-01-19T06:56:13.751Z,64.88
2023-01-19T06:58:48.044Z,65.06
2023-01-19T07:01:19.869Z,65.08
2023-01-19T07:03:54.580Z,66.27
2023-01-19T07:06:26.232Z,65.40
2023-01-19T07:09:00.235Z,65.41
2023-01-19T07:11:32.112Z,65.22
2023-01-19T07:14:04.131Z,64.99
2023-01-19T07:16:35.816Z,64.91
2023-01-19T07:19:10.377Z,64.59
2023-01-19T07:21:42.035Z,64.69
2023-01-19T07:24:13.820Z,64.73
2023-01-19T07:26:45.457Z,64.78
2023-01-19T07:29:18.271Z,64.57
2023-01-19T07:31:50.253Z,64.19
2023-01-19T07:34:22.132Z,64.01
2023-01-19T07:36:56.915Z,63.06
2023-01-19T07:39:28.787Z,62.54
2023-01-19T07:42:00.580Z,62.33
2023-01-19T07:44:32.300Z,61.49
2023-01-19T07:47:07.484Z,61.27
2023-01-19T07:49:39.842Z,61.47
2023-01-19T07:52:11.549Z,61.33
2023-01-19T07:54:43.546Z,60.90
2023-01-19T07:57:15.170Z,60.23
2023-01-19T07:59:46.868Z,60.22
2023-01-19T08:02:18.650Z,59.83
2023-01-19T08:04:50.401Z,59.09
2023-01-19T08:07:22.037Z,57.68
2023-01-19T08:09:53.945Z,56.44
2023-01-19T08:12:25.597Z,57.08
2023-01-19T08:14:57.298Z,56.75
2023-01-19T08:17:28.914Z,56.06
2023-01-19T08:20:00.775Z,54.65
2023-01-19T08:22:32.502Z,54.80
2023-01-19T08:25:04.449Z,53.12
2023-01-19T08:27:36.151Z,52.85
2023-01-19T08:30:08.699Z,51.95
2023-01-19T08:32:40.410Z,52.39
2023-01-19T08:35:12.064Z,51.17
2023-01-19T08:37:43.726Z,49.40
2023-01-19T08:40:15.673Z,48.03
2023-01-19T08:42:47.362Z,44.43
2023-01-19T08:45:19.111Z,43.58
2023-01-19T08:47:50.814Z,43.14
2023-01-19T08:50:26.736Z,40.36
2023-01-19T08:53:00.361Z,38.62
2023-01-19T08:55:35.209Z,37.92
2023-01-19T08:58:08.808Z,37.48
2023-01-19T09:00:41.024Z,37.73
2023-01-19T09:03:13.834Z,36.35
2023-01-19T09:05:45.715Z,35.48
2023-01-19T09:08:17.513Z,34.71
2023-01-19T09:10:51.286Z,34.21
2023-01-19T09:13:23.172Z,34.00
2023-01-19T09:15:55.142Z,33.39
2023-01-19T09:18:26.879Z,33.26
2023-01-19T09:20:58.660Z,33.26
2023-01-19T09:23:30.670Z,33.16
2023-01-19T09:26:04.360Z,32.90
2023-01-19T09:28:38.151Z,33.42
2023-01-19T09:31:09.937Z,32.50
2023-01-19T09:33:41.672Z,32.09
2023-01-19T09:36:13.355Z,30.98
2023-01-19T09:38:45.031Z,31.43
2023-01-19T09:41:22.368Z,30.08
2023-01-19T09:43:59.322Z,30.21
2023-01-19T09:46:40.336Z,29.07
2023-01-19T09:49:31.273Z,28.47
2023-01-19T09:52:03.758Z,28.07
2023-01-19T09:54:46.464Z,28.72
2023-01-19T09:57:18.426Z,27.31
2023-01-19T09:59:51.466Z,26.93
2023-01-19T10:02:28.821Z,25.99
2023-01-19T10:05:05.478Z,24.98
2023-01-19T10:07:53.323Z,23.39
2023-01-19T10:10:30.889Z,23.78
2023-01-19T10:13:43.897Z,23.77
2023-01-19T10:16:59.934Z,24.49
2023-01-19T10:19:38.074Z,25.07
2023-01-19T10:22:21.907Z,26.11
2023-01-19T10:24:57.119Z,27.23
2023-01-19T10:27:30.821Z,27.69
2023-01-19T10:30:04.113Z,27.09
2023-01-19T10:32:36.872Z,27.65
2023-01-19T10:35:21.922Z,27.45
2023-01-19T10:37:58.507Z,29.88
2023-01-19T10:40:37.455Z,29.43
2023-01-19T10:43:33.998Z,29.37
2023-01-19T10:46:08.217Z,30.94
2023-01-19T10:48:42.029Z,31.30
2023-01-19T10:51:14.197Z,31.43
2023-01-19T10:54:03.494Z,31.98
2023-01-19T10:56:37.145Z,32.67
2023-01-19T10:59:36.248Z,34.15
2023-01-19T11:02:18.695Z,34.77
2023-01-19T11:04:53.131Z,34.99
2023-01-19T11:07:33.765Z,35.42
2023-01-19T11:10:24.052Z,36.03
2023-01-19T11:13:15.805Z,36.19
2023-01-19T11:16:07.015Z,36.01
2023-01-19T11:18:41.254Z,35.92
2023-01-19T11:21:15.086Z,36.11
2023-01-19T11:23:52.763Z,36.12
2023-01-19T11:26:44.303Z,36.42
2023-01-19T11:29:22.269Z,37.25
2023-01-19T11:31:55.230Z,38.05
2023-01-19T11:34:36.764Z,38.22
2023-01-19T11:37:20.232Z,39.20
2023-01-19T11:40:04.230Z,39.80
2023-01-19T11:42:37.238Z,40.37
2023-01-19T11:45:19.248Z,40.05
2023-01-19T11:47:52.568Z,40.20
2023-01-19T11:50:39.085Z,40.44
2023-01-19T11:53:16.885Z,40.59
2023-01-19T11:55:59.489Z,40.92
2023-01-19T11:58:33.394Z,41.13
2023-01-19T12:01:10.774Z,41.13
2023-01-19T12:03:49.080Z,42.05
2023-01-19T12:06:34.359Z,42.00
2023-01-19T12:09:15.198Z,42.79
2023-01-19T12:11:53.285Z,43.31
2023-01-19T12:14:47.605Z,43.82
2023-01-19T12:17:43.810Z,43.96
2023-01-19T12:20:46.517Z,44.12
2023-01-19T12:23:47.549Z,45.13
2023-01-19T12:26:36.960Z,45.23
2023-01-19T12:29:13.902Z,45.43
2023-01-19T12:31:45.699Z,45.43
2023-01-19T12:34:46.590Z,45.31
2023-01-19T12:37:39.633Z,45.74
2023-01-19T12:40:27.939Z,46.37
2023-01-19T12:43:05.659Z,46.60
2023-01-19T12:45:39.788Z,47.02
2023-01-19T12:48:25.295Z,47.57
2023-01-19T12:50:57.120Z,48.03
2023-01-19T12:53:30.555Z,47.61
2023-01-19T12:56:06.410Z,48.13
2023-01-19T12:58:38.214Z,48.67
2023-01-19T13:01:21.023Z,49.22
2023-01-19T13:04:30.851Z,49.21
2023-01-19T13:07:05.769Z,49.20
2023-01-19T13:09:39.306Z,49.42
2023-01-19T13:12:13.746Z,49.37
2023-01-19T13:14:45.550Z,50.24
2023-01-19T13:17:29.775Z,50.27
2023-01-19T13:20:27.393Z,49.78
2023-01-19T13:23:16.919Z,50.04
2023-01-19T13:26:03.484Z,51.08
2023-01-19T13:28:40.815Z,50.90
2023-01-19T13:31:13.602Z,50.06
2023-01-19T13:34:00.572Z,50.83
2023-01-19T13:36:36.491Z,51.83
2023-01-19T13:39:19.417Z,51.99
2023-01-19T13:41:54.980Z,52.34
2023-01-19T13:44:42.305Z,52.08
2023-01-19T13:47:21.748Z,52.07
2023-01-19T13:49:57.369Z,51.89
2023-01-19T13:52:29.924Z,52.07
2023-01-19T13:55:04.466Z,52.56
2023-01-19T13:57:47.496Z,52.09
2023-01-19T14:00:38.525Z,52.40
2023-01-19T14:03:13.297Z,52.20
2023-01-19T14:05:45.359Z,52.29
2023-01-19T14:08:18.484Z,52.81
2023-01-19T14:11:02.429Z,52.99
2023-01-19T14:13:40.333Z,52.92
2023-01-19T14:16:17.751Z,52.93
2023-01-19T14:19:04.186Z,53.77
2023-01-19T14:21:40.823Z,53.25
2023-01-19T14:24:19.971Z,53.42
2023-01-19T14:26:54.710Z,52.67
2023-01-19T14:29:47.376Z,53.52
2023-01-19T14:32:25.464Z,53.77
2023-01-19T14:35:04.118Z,53.74
2023-01-19T14:37:37.934Z,53.85
2023-01-19T14:40:12.953Z,54.31
2023-01-19T14:43:00.160Z,53.51
2023-01-19T14:45:41.323Z,54.43
2023-01-19T14:48:18.198Z,53.79
2023-01-19T14:51:02.885Z,53.84
2023-01-19T14:53:38.344Z,54.37
2023-01-19T14:56:10.546Z,54.34
2023-01-19T14:58:42.243Z,54.02
2023-01-19T15:01:13.935Z,54.85
2023-01-19T15:03:46.063Z,54.42
2023-01-19T15:06:20.466Z,54.92
2023-01-19T15:08:56.018Z,54.53
2023-01-19T15:11:33.942Z,54.40
2023-01-19T15:14:06.039Z,54.77
2023-01-19T15:16:37.800Z,54.48
2023-01-19T15:19:12.370Z,55.01
2023-01-19T15:21:46.376Z,54.57
2023-01-19T15:24:18.255Z,54.52
2023-01-19T15:26:49.963Z,54.97
2023-01-19T15:29:24.779Z,55.28
2023-01-19T15:31:56.287Z,54.76
2023-01-19T15:34:27.971Z,55.33
2023-01-19T15:36:59.969Z,55.12
2023-01-19T15:39:32.357Z,55.09
2023-01-19T15:42:04.113Z,55.27
2023-01-19T15:44:38.418Z,55.54
2023-01-19T15:47:10.326Z,54.90
2023-01-19T15:49:42.025Z,55.48
2023-01-19T15:52:14.681Z,54.78
2023-01-19T15:54:47.544Z,55.45
2023-01-19T15:57:19.242Z,55.61
2023-01-19T15:59:51.465Z,55.36
2023-01-19T16:02:23.547Z,55.29
2023-01-19T16:04:55.267Z,55.61
2023-01-19T16:07:27.020Z,55.90
2023-01-19T16:09:58.726Z,55.87
2023-01-19T16:12:30.388Z,55.80
2023-01-19T16:15:02.056Z,55.35
2023-01-19T16:17:33.793Z,55.70
2023-01-19T16:20:06.559Z,55.17
2023-01-19T16:22:38.446Z,55.06
2023-01-19T16:25:11.240Z,55.72
2023-01-19T16:27:43.158Z,55.41
2023-01-19T16:30:16.401Z,55.23
2023-01-19T16:32:51.016Z,55.52
2023-01-19T16:35:22.714Z,55.45
2023-01-19T16:37:54.386Z,56.03
2023-01-19T16:40:29.174Z,55.75
2023-01-19T16:43:01.153Z,56.02
2023-01-19T16:45:32.880Z,55.86
2023-01-19T16:48:04.897Z,56.21
2023-01-19T16:50:36.636Z,56.34
2023-01-19T16:53:08.299Z,56.01
2023-01-19T16:55:43.478Z,56.37
2023-01-19T16:58:15.135Z,55.77
2023-01-19T17:00:46.953Z,56.57
2023-01-19T17:03:18.797Z,56.70
2023-01-19T17:05:51.107Z,56.14
2023-01-19T17:08:22.865Z,55.92
2023-01-19T17:10:55.711Z,56.70
2023-01-19T17:13:27.351Z,56.83
2023-01-19T17:16:03.864Z,56.12
2023-01-19T17:18:36.824Z,56.69
2023-01-19T17:21:12.921Z,56.39
2023-01-19T17:23:51.662Z,56.19
2023-01-19T17:26:31.359Z,56.42
2023-01-19T17:29:08.126Z,56.33
2023-01-19T17:31:39.996Z,56.23
2023-01-19T17:34:11.727Z,55.66
2023-01-19T17:36:43.630Z,56.33
2023-01-19T17:39:16.868Z,56.26
2023-01-19T17:41:50.286Z,56.29
2023-01-19T17:44:22.456Z,55.57
2023-01-19T17:46:54.102Z,55.74
2023-01-19T17:49:25.792Z,56.21
2023-01-19T17:51:57.500Z,56.29
2023-01-19T17:54:29.240Z,56.28
2023-01-19T17:57:01.017Z,56.04
2023-01-19T17:59:32.741Z,56.51
2023-01-19T18:02:04.442Z,56.20
2023-01-19T18:04:39.578Z,55.91
2023-01-19T18:07:11.327Z,55.88
2023-01-19T18:09:43.005Z,59.02
2023-01-19T18:12:15.974Z,57.02
2023-01-19T18:14:47.590Z,57.02
2023-01-19T18:17:19.307Z,57.09
2023-01-19T18:19:51.035Z,56.84
2023-01-19T18:22:25.579Z,55.32
2023-01-19T18:24:57.293Z,54.16
2023-01-19T18:27:29.486Z,53.92
2023-01-19T18:30:01.129Z,54.14
2023-01-19T18:32:34.636Z,54.08
2023-01-19T18:35:06.980Z,54.13
2023-01-19T18:37:38.660Z,54.34
2023-01-19T18:40:11.627Z,54.10
2023-01-19T18:42:45.670Z,53.70
2023-01-19T18:45:17.346Z,54.08
2023-01-19T18:47:49.079Z,54.26
2023-01-19T18:50:20.721Z,53.92
2023-01-19T18:52:52.843Z,53.99
2023-01-19T18:55:24.582Z,54.02
2023-01-19T18:57:56.334Z,53.98
2023-01-19T19:00:27.995Z,54.13
2023-01-19T19:03:00.108Z,54.71
2023-01-19T19:05:31.898Z,54.59
2023-01-19T19:08:04.787Z,54.64
2023-01-19T19:10:36.601Z,54.48
2023-01-19T19:13:09.203Z,54.29
2023-01-19T19:15:40.959Z,54.67
2023-01-19T19:18:14.033Z,54.36
2023-01-19T19:20:45.893Z,54.66
2023-01-19T19:23:17.616Z,55.05
2023-01-19T19:25:49.328Z,55.00
2023-01-19T19:28:21.026Z,54.61
2023-01-19T19:31:22.161Z,54.82
2023-01-19T19:33:55.944Z,54.83
2023-01-19T19:36:31.695Z,55.32
2023-01-19T19:39:03.696Z,55.47
2023-01-19T19:41:38.262Z,55.50
2023-01-19T19:44:12.959Z,55.73
2023-01-19T19:46:44.682Z,55.71
2023-01-19T19:49:21.331Z,56.02
2023-01-19T19:51:53.216Z,55.61
2023-01-19T19:54:24.923Z,55.77
2023-01-19T19:57:05.557Z,55.94
2023-01-19T19:59:38.537Z,56.26
2023-01-19T20:02:19.072Z,56.58
2023-01-19T20:04:55.953Z,56.64
2023-01-19T20:07:27.529Z,56.61
2023-01-19T20:10:05.294Z,56.73
2023-01-19T20:12:38.793Z,56.73
2023-01-19T20:15:13.898Z,56.72
2023-01-19T20:17:45.733Z,57.07
2023-01-19T20:20:17.664Z,57.06
2023-01-19T20:22:52.889Z,57.21
2023-01-19T20:25:27.555Z,57.13
2023-01-19T20:28:06.894Z,57.26
2023-01-19T20:30:40.859Z,57.53
2023-01-19T20:33:12.667Z,57.38
2023-01-19T20:35:44.830Z,57.35
2023-01-19T20:38:16.494Z,57.42
2023-01-19T20:40:59.733Z,57.52
2023-01-19T20:43:31.533Z,57.54
2023-01-19T20:46:03.915Z,57.37
2023-01-19T20:48:35.902Z,57.64
2023-01-19T20:51:10.823Z,57.57
2023-01-19T20:53:42.540Z,57.76
2023-01-19T20:56:16.724Z,57.52
2023-01-19T20:58:48.477Z,57.94
2023-01-19T21:01:23.274Z,58.02
2023-01-19T21:03:54.997Z,57.76
2023-01-19T21:06:26.800Z,58.06
2023-01-19T21:08:58.488Z,58.34
2023-01-19T21:11:30.527Z,57.99
2023-01-19T21:14:02.725Z,58.19
2023-01-19T21:16:35.243Z,57.88
2023-01-19T21:19:07.075Z,57.78
2023-01-19T21:21:38.756Z,58.06
2023-01-19T21:24:11.320Z,58.06
2023-01-19T21:26:43.026Z,58.56
2023-01-19T21:29:14.940Z,58.38
2023-01-19T21:31:46.794Z,58.54
2023-01-19T21:34:18.662Z,58.61
2023-01-19T21:36:50.396Z,58.64
2023-01-19T21:39:22.145Z,58.76
2023-01-19T21:41:55.281Z,58.88
2023-01-19T21:44:29.922Z,59.26
2023-01-19T21:47:01.588Z,58.81
2023-01-19T21:49:33.280Z,59.03
2023-01-19T21:52:05.346Z,58.87
2023-01-19T21:54:37.123Z,59.25
2023-01-19T21:57:09.038Z,59.26
2023-01-19T21:59:40.673Z,59.55
2023-01-19T22:02:13.174Z,59.34
2023-01-19T22:04:45.007Z,60.30
2023-01-19T22:07:16.705Z,60.48
2023-01-19T22:09:48.399Z,60.43
2023-01-19T22:12:20.091Z,60.35
2023-01-19T22:14:52.541Z,60.82
2023-01-19T22:17:24.264Z,61.10
2023-01-19T22:19:55.909Z,60.88
2023-01-19T22:22:27.875Z,60.91
2023-01-19T22:25:15.179Z,60.66
2023-01-19T22:27:47.098Z,60.69
2023-01-19T22:30:19.332Z,60.94
2023-01-19T22:32:51.096Z,60.85
2023-01-19T22:35:22.827Z,60.69
2023-01-19T22:37:57.409Z,61.16
2023-01-19T22:40:29.078Z,61.48
2023-01-19T22:43:00.761Z,61.67
2023-01-19T22:45:32.502Z,61.94
2023-01-19T22:48:04.295Z,61.77
2023-01-19T22:50:35.926Z,61.86
2023-01-19T22:53:08.671Z,61.66
2023-01-19T22:55:40.662Z,61.58
2023-01-19T22:58:15.130Z,61.30
2023-01-19T23:00:46.865Z,61.34
2023-01-19T23:03:18.628Z,61.31
2023-01-19T23:05:50.350Z,61.10
2023-01-19T23:08:22.075Z,61.20
2023-01-19T23:10:53.956Z,61.54
2023-01-19T23:13:25.633Z,61.50
2023-01-19T23:15:58.012Z,61.50
2023-01-19T23:18:30.622Z,61.32
2023-01-19T23:21:10.807Z,60.86
2023-01-19T23:23:43.210Z,60.79
2023-01-19T23:26:18.351Z,60.94
2023-01-19T23:28:55.624Z,61.03
2023-01-19T23:31:33.288Z,61.43
2023-01-19T23:34:07.243Z,61.26
2023-01-19T23:36:40.856Z,61.29
2023-01-19T23:39:18.755Z,61.03
2023-01-19T23:41:50.431Z,61.05
2023-01-19T23:44:22.167Z,61.04
2023-01-19T23:46:53.811Z,60.94
2023-01-19T23:49:25.687Z,61.11
2023-01-19T23:51:57.338Z,61.28
2023-01-19T23:54:28.997Z,61.05
2023-01-19T23:57:00.632Z,61.21
2023-01-19T23:59:32.348Z,61.19
